Check out our new PWSWeather beta!
PWSweather.com
Personal Weather Stations
Station Observations
PICKERING
North Yorkshire, PickeringGB

North YorkshirePickeringGB

Lat: 54.2494, Lon: -0.7725

Elevation: 192

Station Type: Oregon Scientific WMR100

High Low Average
Temperature 75.4°F24.1°C 53.2°F11.8°C 63.0°F17.2°C
Dew Point 60.8°F16.0°C 42.8°F6.0°C 52.2°F11.2°C
Winds 11.4 mph 18.3 kmh 0.2 mph 0.3 kmh 4.0 mph SW6.4 kmh SW
Wind Gusts 19.0 mph30.6 kmh 1.1 mph1.8 kmh 8.0 mph12.9 kmh
Humidity 90% 45% 69%
Pressure 29.50 in999.0 mb 29.36 in994.2 mb -
Precipitation 0.00 in0.0 mm - -
Hour Temp Dew Point Humidity Winds Wind Gusts Pressure Precip Precip Rate Daily Precip Total
12:00 AM 59.4°F15.2°C 57.2°F14.0°C 90% 3.7 mph SSW6.0 kmh SSW 4.7 mph7.6 kmh 29.36 in994.2 mb 0.00 in0.0 mm 0.00 in0.0 mm 0.00 in0.0 mm
12:05 AM 59.4°F15.2°C 57.2°F14.0°C 89% 4.2 mph SSW6.8 kmh SSW 5.8 mph9.3 kmh 29.36 in994.2 mb 0.00 in0.0 mm 0.00 in0.0 mm 0.00 in0.0 mm
12:10 AM 59.4°F15.2°C 57.2°F14.0°C 89% 4.4 mph SSW7.1 kmh SSW 5.8 mph9.3 kmh 29.36 in994.2 mb 0.00 in0.0 mm 0.00 in0.0 mm 0.00 in0.0 mm
12:15 AM 59.4°F15.2°C 57.2°F14.0°C 89% 4.5 mph SW7.2 kmh SW 5.8 mph9.3 kmh 29.36 in994.2 mb 0.00 in0.0 mm 0.00 in0.0 mm 0.00 in0.0 mm
12:20 AM 59.4°F15.2°C 57.2°F14.0°C 89% 5.4 mph SW8.7 kmh SW 7.4 mph11.9 kmh 29.36 in994.2 mb 0.00 in0.0 mm 0.00 in0.0 mm 0.00 in0.0 mm
12:25 AM 59.2°F15.1°C 55.4°F13.0°C 89% 4.9 mph SSW7.9 kmh SSW 7.4 mph11.9 kmh 29.36 in994.2 mb 0.00 in0.0 mm 0.00 in0.0 mm 0.00 in0.0 mm
12:30 AM 59.0°F15.0°C 55.4°F13.0°C 89% 3.7 mph SSW6.0 kmh SSW 6.0 mph9.7 kmh 29.36 in994.2 mb 0.00 in0.0 mm 0.00 in0.0 mm 0.00 in0.0 mm
12:35 AM 59.0°F15.0°C 55.4°F13.0°C 89% 3.1 mph SSW5.0 kmh SSW 4.7 mph7.6 kmh 29.36 in994.2 mb 0.00 in0.0 mm 0.00 in0.0 mm 0.00 in0.0 mm
12:40 AM 59.0°F15.0°C 55.4°F13.0°C 89% 3.9 mph SW6.3 kmh SW 9.6 mph15.4 kmh 29.36 in994.2 mb 0.00 in0.0 mm 0.00 in0.0 mm 0.00 in0.0 mm
12:45 AM 59.0°F15.0°C 55.4°F13.0°C 89% 4.5 mph SSW7.2 kmh SSW 9.6 mph15.4 kmh 29.36 in994.2 mb 0.00 in0.0 mm 0.00 in0.0 mm 0.00 in0.0 mm
12:50 AM 59.0°F15.0°C 55.4°F13.0°C 89% 4.7 mph S7.6 kmh S 8.5 mph13.7 kmh 29.36 in994.2 mb 0.00 in0.0 mm 0.00 in0.0 mm 0.00 in0.0 mm
12:55 AM 59.0°F15.0°C 55.4°F13.0°C 88% 4.5 mph S7.2 kmh S 8.5 mph13.7 kmh 29.36 in994.2 mb 0.00 in0.0 mm 0.00 in0.0 mm 0.00 in0.0 mm
01:00 AM 58.8°F14.9°C 55.4°F13.0°C 88% 3.6 mph S5.8 kmh S 6.3 mph10.1 kmh 29.36 in994.2 mb 0.00 in0.0 mm 0.00 in0.0 mm 0.00 in0.0 mm
01:05 AM 58.8°F14.9°C 55.4°F13.0°C 88% 4.0 mph S6.4 kmh S 6.0 mph9.7 kmh 29.36 in994.2 mb 0.00 in0.0 mm 0.00 in0.0 mm 0.00 in0.0 mm
01:10 AM 58.6°F14.8°C 55.4°F13.0°C 88% 5.3 mph SSW8.5 kmh SSW 7.6 mph12.2 kmh 29.36 in994.2 mb 0.00 in0.0 mm 0.00 in0.0 mm 0.00 in0.0 mm
01:15 AM 58.6°F14.8°C 55.4°F13.0°C 87% 4.8 mph SSW7.7 kmh SSW 7.6 mph12.2 kmh 29.36 in994.2 mb 0.00 in0.0 mm 0.00 in0.0 mm 0.00 in0.0 mm
01:20 AM 58.5°F14.7°C 55.4°F13.0°C 87% 4.1 mph SW6.6 kmh SW 7.4 mph11.9 kmh 29.36 in994.2 mb 0.00 in0.0 mm 0.00 in0.0 mm 0.00 in0.0 mm
01:25 AM 58.1°F14.5°C 55.4°F13.0°C 87% 3.6 mph SW5.8 kmh SW 6.5 mph10.5 kmh 29.36 in994.2 mb 0.00 in0.0 mm 0.00 in0.0 mm 0.00 in0.0 mm
01:30 AM 58.1°F14.5°C 55.4°F13.0°C 87% 3.2 mph SSW5.1 kmh SSW 5.4 mph8.7 kmh 29.36 in994.2 mb 0.00 in0.0 mm 0.00 in0.0 mm 0.00 in0.0 mm
01:35 AM 57.9°F14.4°C 55.4°F13.0°C 87% 3.3 mph SSW5.3 kmh SSW 5.4 mph8.7 kmh 29.36 in994.2 mb 0.00 in0.0 mm 0.00 in0.0 mm 0.00 in0.0 mm
01:40 AM 57.7°F14.3°C 53.6°F12.0°C 86% 3.3 mph SW5.3 kmh SW 5.4 mph8.7 kmh 29.36 in994.2 mb 0.00 in0.0 mm 0.00 in0.0 mm 0.00 in0.0 mm
01:45 AM 57.6°F14.2°C 53.6°F12.0°C 86% 2.9 mph SSW4.7 kmh SSW 6.0 mph9.7 kmh 29.36 in994.2 mb 0.00 in0.0 mm 0.00 in0.0 mm 0.00 in0.0 mm
01:50 AM 57.4°F14.1°C 53.6°F12.0°C 86% 2.9 mph SSW4.7 kmh SSW 6.0 mph9.7 kmh 29.36 in994.2 mb 0.00 in0.0 mm 0.00 in0.0 mm 0.00 in0.0 mm
01:55 AM 57.4°F14.1°C 53.6°F12.0°C 86% 2.5 mph SW4.0 kmh SW 6.0 mph9.7 kmh 29.36 in994.2 mb 0.00 in0.0 mm 0.00 in0.0 mm 0.00 in0.0 mm
02:00 AM 57.4°F14.1°C 53.6°F12.0°C 86% 1.8 mph SW2.9 kmh SW 3.8 mph6.1 kmh 29.36 in994.2 mb 0.00 in0.0 mm 0.00 in0.0 mm 0.00 in0.0 mm
02:05 AM 57.2°F14.0°C 53.6°F12.0°C 86% 2.3 mph SW3.7 kmh SW 5.6 mph9.0 kmh 29.36 in994.2 mb 0.00 in0.0 mm 0.00 in0.0 mm 0.00 in0.0 mm
02:10 AM 57.2°F14.0°C 53.6°F12.0°C 86% 2.7 mph SW4.3 kmh SW 5.6 mph9.0 kmh 29.39 in995.3 mb 0.00 in0.0 mm 0.00 in0.0 mm 0.00 in0.0 mm
02:15 AM 57.2°F14.0°C 53.6°F12.0°C 86% 2.6 mph WSW4.2 kmh WSW 4.9 mph7.9 kmh 29.39 in995.3 mb 0.00 in0.0 mm 0.00 in0.0 mm 0.00 in0.0 mm
02:20 AM 57.2°F14.0°C 53.6°F12.0°C 86% 3.2 mph WSW5.1 kmh WSW 4.9 mph7.9 kmh 29.39 in995.3 mb 0.00 in0.0 mm 0.00 in0.0 mm 0.00 in0.0 mm
02:25 AM 57.2°F14.0°C 53.6°F12.0°C 86% 3.3 mph SW5.3 kmh SW 7.4 mph11.9 kmh 29.39 in995.3 mb 0.00 in0.0 mm 0.00 in0.0 mm 0.00 in0.0 mm
02:30 AM 57.0°F13.9°C 53.6°F12.0°C 87% 2.9 mph SSW4.7 kmh SSW 7.4 mph11.9 kmh 29.39 in995.3 mb 0.00 in0.0 mm 0.00 in0.0 mm 0.00 in0.0 mm
02:35 AM 57.0°F13.9°C 53.6°F12.0°C 87% 3.1 mph SW5.0 kmh SW 7.4 mph11.9 kmh 29.39 in995.3 mb 0.00 in0.0 mm 0.00 in0.0 mm 0.00 in0.0 mm
02:40 AM 57.0°F13.9°C 53.6°F12.0°C 87% 3.0 mph SW4.8 kmh SW 5.4 mph8.7 kmh 29.39 in995.3 mb 0.00 in0.0 mm 0.00 in0.0 mm 0.00 in0.0 mm
02:45 AM 57.0°F13.9°C 53.6°F12.0°C 87% 2.6 mph SW4.2 kmh SW 5.4 mph8.7 kmh 29.39 in995.3 mb 0.00 in0.0 mm 0.00 in0.0 mm 0.00 in0.0 mm
02:50 AM 56.8°F13.8°C 53.6°F12.0°C 88% 2.0 mph SSW3.2 kmh SSW 3.6 mph5.8 kmh 29.39 in995.3 mb 0.00 in0.0 mm 0.00 in0.0 mm 0.00 in0.0 mm
02:55 AM 56.8°F13.8°C 53.6°F12.0°C 88% 2.3 mph SSW3.7 kmh SSW 3.6 mph5.8 kmh 29.39 in995.3 mb 0.00 in0.0 mm 0.00 in0.0 mm 0.00 in0.0 mm
03:00 AM 56.8°F13.8°C 53.6°F12.0°C 88% 2.5 mph S4.0 kmh S 3.4 mph5.5 kmh 29.39 in995.3 mb 0.00 in0.0 mm 0.00 in0.0 mm 0.00 in0.0 mm
03:05 AM 56.8°F13.8°C 53.6°F12.0°C 88% 2.2 mph S3.5 kmh S 3.6 mph5.8 kmh 29.39 in995.3 mb 0.00 in0.0 mm 0.00 in0.0 mm 0.00 in0.0 mm
03:10 AM 56.8°F13.8°C 53.6°F12.0°C 88% 1.9 mph SSW3.1 kmh SSW 3.6 mph5.8 kmh 29.39 in995.3 mb 0.00 in0.0 mm 0.00 in0.0 mm 0.00 in0.0 mm
03:15 AM 56.8°F13.8°C 53.6°F12.0°C 88% 2.2 mph S3.5 kmh S 4.3 mph6.9 kmh 29.39 in995.3 mb 0.00 in0.0 mm 0.00 in0.0 mm 0.00 in0.0 mm
03:20 AM 56.8°F13.8°C 53.6°F12.0°C 88% 3.0 mph SSW4.8 kmh SSW 4.3 mph6.9 kmh 29.39 in995.3 mb 0.00 in0.0 mm 0.00 in0.0 mm 0.00 in0.0 mm
03:25 AM 56.7°F13.7°C 53.6°F12.0°C 88% 3.3 mph SSW5.3 kmh SSW 6.0 mph9.7 kmh 29.39 in995.3 mb 0.00 in0.0 mm 0.00 in0.0 mm 0.00 in0.0 mm
03:30 AM 56.7°F13.7°C 53.6°F12.0°C 88% 3.2 mph SW5.1 kmh SW 6.0 mph9.7 kmh 29.39 in995.3 mb 0.00 in0.0 mm 0.00 in0.0 mm 0.00 in0.0 mm
03:35 AM 56.7°F13.7°C 53.6°F12.0°C 88% 2.8 mph WSW4.5 kmh WSW 4.3 mph6.9 kmh 29.39 in995.3 mb 0.00 in0.0 mm 0.00 in0.0 mm 0.00 in0.0 mm
03:40 AM 56.7°F13.7°C 53.6°F12.0°C 88% 2.6 mph SW4.2 kmh SW 4.9 mph7.9 kmh 29.39 in995.3 mb 0.00 in0.0 mm 0.00 in0.0 mm 0.00 in0.0 mm
03:45 AM 56.7°F13.7°C 53.6°F12.0°C 88% 2.8 mph SSW4.5 kmh SSW 6.3 mph10.1 kmh 29.39 in995.3 mb 0.00 in0.0 mm 0.00 in0.0 mm 0.00 in0.0 mm
03:50 AM 56.7°F13.7°C 53.6°F12.0°C 87% 3.6 mph SSW5.8 kmh SSW 6.3 mph10.1 kmh 29.39 in995.3 mb 0.00 in0.0 mm 0.00 in0.0 mm 0.00 in0.0 mm
03:55 AM 56.7°F13.7°C 53.6°F12.0°C 87% 4.0 mph SSW6.4 kmh SSW 5.4 mph8.7 kmh 29.39 in995.3 mb 0.00 in0.0 mm 0.00 in0.0 mm 0.00 in0.0 mm
04:00 AM 56.7°F13.7°C 53.6°F12.0°C 87% 4.1 mph S6.6 kmh S 4.9 mph7.9 kmh 29.39 in995.3 mb 0.00 in0.0 mm 0.00 in0.0 mm 0.00 in0.0 mm
04:05 AM 56.5°F13.6°C 53.6°F12.0°C 87% 4.2 mph SSW6.8 kmh SSW 6.3 mph10.1 kmh 29.39 in995.3 mb 0.00 in0.0 mm 0.00 in0.0 mm 0.00 in0.0 mm
04:10 AM 56.3°F13.5°C 53.6°F12.0°C 87% 4.8 mph SW7.7 kmh SW 8.5 mph13.7 kmh 29.39 in995.3 mb 0.00 in0.0 mm 0.00 in0.0 mm 0.00 in0.0 mm
04:15 AM 56.1°F13.4°C 53.6°F12.0°C 87% 4.8 mph SW7.7 kmh SW 8.5 mph13.7 kmh 29.39 in995.3 mb 0.00 in0.0 mm 0.00 in0.0 mm 0.00 in0.0 mm
04:20 AM 56.1°F13.4°C 53.6°F12.0°C 87% 3.9 mph SSW6.3 kmh SSW 6.0 mph9.7 kmh 29.39 in995.3 mb 0.00 in0.0 mm 0.00 in0.0 mm 0.00 in0.0 mm
04:25 AM 56.1°F13.4°C 53.6°F12.0°C 87% 3.0 mph SSW4.8 kmh SSW 5.6 mph9.0 kmh 29.39 in995.3 mb 0.00 in0.0 mm 0.00 in0.0 mm 0.00 in0.0 mm
04:30 AM 56.1°F13.4°C 53.6°F12.0°C 87% 2.7 mph S4.3 kmh S 3.6 mph5.8 kmh 29.39 in995.3 mb 0.00 in0.0 mm 0.00 in0.0 mm 0.00 in0.0 mm
04:35 AM 55.9°F13.3°C 53.6°F12.0°C 87% 3.0 mph S4.8 kmh S 6.0 mph9.7 kmh 29.39 in995.3 mb 0.00 in0.0 mm 0.00 in0.0 mm 0.00 in0.0 mm
04:40 AM 55.8°F13.2°C 53.6°F12.0°C 87% 2.6 mph S4.2 kmh S 6.0 mph9.7 kmh 29.39 in995.3 mb 0.00 in0.0 mm 0.00 in0.0 mm 0.00 in0.0 mm
04:45 AM 55.6°F13.1°C 51.8°F11.0°C 87% 2.3 mph SSW3.7 kmh SSW 4.0 mph6.4 kmh 29.39 in995.3 mb 0.00 in0.0 mm 0.00 in0.0 mm 0.00 in0.0 mm
04:50 AM 55.6°F13.1°C 51.8°F11.0°C 87% 2.4 mph S3.9 kmh S 3.6 mph5.8 kmh 29.39 in995.3 mb 0.00 in0.0 mm 0.00 in0.0 mm 0.00 in0.0 mm
04:55 AM 55.6°F13.1°C 51.8°F11.0°C 87% 1.9 mph S3.1 kmh S 3.6 mph5.8 kmh 29.39 in995.3 mb 0.00 in0.0 mm 0.00 in0.0 mm 0.00 in0.0 mm
05:00 AM 55.4°F13.0°C 51.8°F11.0°C 87% 1.7 mph SSE2.7 kmh SSE 2.9 mph4.7 kmh 29.39 in995.3 mb 0.00 in0.0 mm 0.00 in0.0 mm 0.00 in0.0 mm
05:05 AM 55.2°F12.9°C 51.8°F11.0°C 88% 1.7 mph SSE2.7 kmh SSE 3.1 mph5.0 kmh 29.39 in995.3 mb 0.00 in0.0 mm 0.00 in0.0 mm 0.00 in0.0 mm
05:10 AM 55.2°F12.9°C 51.8°F11.0°C 88% 1.8 mph S2.9 kmh S 4.0 mph6.4 kmh 29.39 in995.3 mb 0.00 in0.0 mm 0.00 in0.0 mm 0.00 in0.0 mm
05:15 AM 55.2°F12.9°C 51.8°F11.0°C 88% 2.9 mph SSW4.7 kmh SSW 6.0 mph9.7 kmh 29.39 in995.3 mb 0.00 in0.0 mm 0.00 in0.0 mm 0.00 in0.0 mm
05:20 AM 55.2°F12.9°C 51.8°F11.0°C 87% 3.2 mph SSW5.1 kmh SSW 6.0 mph9.7 kmh 29.39 in995.3 mb 0.00 in0.0 mm 0.00 in0.0 mm 0.00 in0.0 mm
05:25 AM 55.2°F12.9°C 51.8°F11.0°C 87% 2.5 mph S4.0 kmh S 3.1 mph5.0 kmh 29.39 in995.3 mb 0.00 in0.0 mm 0.00 in0.0 mm 0.00 in0.0 mm
05:30 AM 55.2°F12.9°C 51.8°F11.0°C 87% 2.9 mph S4.7 kmh S 4.0 mph6.4 kmh 29.39 in995.3 mb 0.00 in0.0 mm 0.00 in0.0 mm 0.00 in0.0 mm
05:35 AM 55.4°F13.0°C 51.8°F11.0°C 87% 3.1 mph S5.0 kmh S 4.7 mph7.6 kmh 29.39 in995.3 mb 0.00 in0.0 mm 0.00 in0.0 mm 0.00 in0.0 mm
05:40 AM 55.4°F13.0°C 51.8°F11.0°C 87% 2.2 mph S3.5 kmh S 4.7 mph7.6 kmh 29.39 in995.3 mb 0.00 in0.0 mm 0.00 in0.0 mm 0.00 in0.0 mm
05:45 AM 55.6°F13.1°C 51.8°F11.0°C 87% 2.0 mph SSW3.2 kmh SSW 4.7 mph7.6 kmh 29.39 in995.3 mb 0.00 in0.0 mm 0.00 in0.0 mm 0.00 in0.0 mm
05:50 AM 55.4°F13.0°C 51.8°F11.0°C 87% 2.3 mph SW3.7 kmh SW 4.7 mph7.6 kmh 29.39 in995.3 mb 0.00 in0.0 mm 0.00 in0.0 mm 0.00 in0.0 mm
05:55 AM 55.4°F13.0°C 51.8°F11.0°C 87% 2.5 mph SW4.0 kmh SW 6.0 mph9.7 kmh 29.39 in995.3 mb 0.00 in0.0 mm 0.00 in0.0 mm 0.00 in0.0 mm
06:00 AM 55.4°F13.0°C 51.8°F11.0°C 87% 2.6 mph SW4.2 kmh SW 6.0 mph9.7 kmh 29.39 in995.3 mb 0.00 in0.0 mm 0.00 in0.0 mm 0.00 in0.0 mm
06:05 AM 55.4°F13.0°C 51.8°F11.0°C 87% 3.1 mph S5.0 kmh S 6.0 mph9.7 kmh 29.39 in995.3 mb 0.00 in0.0 mm 0.00 in0.0 mm 0.00 in0.0 mm
06:10 AM 55.6°F13.1°C 51.8°F11.0°C 87% 3.3 mph S5.3 kmh S 5.8 mph9.3 kmh 29.39 in995.3 mb 0.00 in0.0 mm 0.00 in0.0 mm 0.00 in0.0 mm
06:15 AM 55.8°F13.2°C 53.6°F12.0°C 87% 2.9 mph S4.7 kmh S 5.8 mph9.3 kmh 29.39 in995.3 mb 0.00 in0.0 mm 0.00 in0.0 mm 0.00 in0.0 mm
06:20 AM 55.9°F13.3°C 53.6°F12.0°C 87% 2.3 mph S3.7 kmh S 4.0 mph6.4 kmh 29.39 in995.3 mb 0.00 in0.0 mm 0.00 in0.0 mm 0.00 in0.0 mm
06:25 AM 56.3°F13.5°C 53.6°F12.0°C 87% 2.1 mph S3.4 kmh S 4.0 mph6.4 kmh 29.39 in995.3 mb 0.00 in0.0 mm 0.00 in0.0 mm 0.00 in0.0 mm
06:30 AM 56.5°F13.6°C 53.6°F12.0°C 87% 2.5 mph S4.0 kmh S 3.8 mph6.1 kmh 29.39 in995.3 mb 0.00 in0.0 mm 0.00 in0.0 mm 0.00 in0.0 mm
06:35 AM 56.7°F13.7°C 53.6°F12.0°C 87% 3.1 mph S5.0 kmh S 5.4 mph8.7 kmh 29.39 in995.3 mb 0.00 in0.0 mm 0.00 in0.0 mm 0.00 in0.0 mm
06:40 AM 56.8°F13.8°C 53.6°F12.0°C 87% 3.5 mph SSW5.6 kmh SSW 5.4 mph8.7 kmh 29.41 in995.9 mb 0.00 in0.0 mm 0.00 in0.0 mm 0.00 in0.0 mm
06:45 AM 56.8°F13.8°C 53.6°F12.0°C 87% 3.7 mph SSW6.0 kmh SSW 6.0 mph9.7 kmh 29.41 in995.9 mb 0.00 in0.0 mm 0.00 in0.0 mm 0.00 in0.0 mm
06:50 AM 57.0°F13.9°C 53.6°F12.0°C 87% 3.5 mph SSW5.6 kmh SSW 6.0 mph9.7 kmh 29.41 in995.9 mb 0.00 in0.0 mm 0.00 in0.0 mm 0.00 in0.0 mm
06:55 AM 57.0°F13.9°C 53.6°F12.0°C 87% 3.3 mph S5.3 kmh S 4.3 mph6.9 kmh 29.41 in995.9 mb 0.00 in0.0 mm 0.00 in0.0 mm 0.00 in0.0 mm
07:00 AM 57.2°F14.0°C 53.6°F12.0°C 87% 3.5 mph S5.6 kmh S 5.8 mph9.3 kmh 29.41 in995.9 mb 0.00 in0.0 mm 0.00 in0.0 mm 0.00 in0.0 mm
07:05 AM 57.4°F14.1°C 53.6°F12.0°C 87% 3.3 mph S5.3 kmh S 5.8 mph9.3 kmh 29.41 in995.9 mb 0.00 in0.0 mm 0.00 in0.0 mm 0.00 in0.0 mm
07:10 AM 57.6°F14.2°C 53.6°F12.0°C 86% 4.0 mph S6.4 kmh S 6.3 mph10.1 kmh 29.41 in995.9 mb 0.00 in0.0 mm 0.00 in0.0 mm 0.00 in0.0 mm
07:15 AM 57.6°F14.2°C 55.4°F13.0°C 87% 4.6 mph S7.4 kmh S 6.3 mph10.1 kmh 29.41 in995.9 mb 0.00 in0.0 mm 0.00 in0.0 mm 0.00 in0.0 mm
07:20 AM 57.6°F14.2°C 55.4°F13.0°C 87% 3.9 mph SSW6.3 kmh SSW 6.3 mph10.1 kmh 29.41 in995.9 mb 0.00 in0.0 mm 0.00 in0.0 mm 0.00 in0.0 mm
07:25 AM 58.1°F14.5°C 55.4°F13.0°C 86% 3.7 mph SSW6.0 kmh SSW 5.4 mph8.7 kmh 29.41 in995.9 mb 0.00 in0.0 mm 0.00 in0.0 mm 0.00 in0.0 mm
07:30 AM 58.6°F14.8°C 55.4°F13.0°C 86% 4.1 mph SSW6.6 kmh SSW 6.0 mph9.7 kmh 29.41 in995.9 mb 0.00 in0.0 mm 0.00 in0.0 mm 0.00 in0.0 mm
07:35 AM 59.0°F15.0°C 55.4°F13.0°C 86% 3.7 mph SSW6.0 kmh SSW 6.3 mph10.1 kmh 29.41 in995.9 mb 0.00 in0.0 mm 0.00 in0.0 mm 0.00 in0.0 mm
07:40 AM 59.2°F15.1°C 55.4°F13.0°C 86% 3.7 mph S6.0 kmh S 6.3 mph10.1 kmh 29.41 in995.9 mb 0.00 in0.0 mm 0.00 in0.0 mm 0.00 in0.0 mm
07:45 AM 59.5°F15.3°C 55.4°F13.0°C 86% 3.6 mph SSW5.8 kmh SSW 6.3 mph10.1 kmh 29.41 in995.9 mb 0.00 in0.0 mm 0.00 in0.0 mm 0.00 in0.0 mm
07:50 AM 59.5°F15.3°C 55.4°F13.0°C 86% 3.4 mph SW5.5 kmh SW 6.3 mph10.1 kmh 29.41 in995.9 mb 0.00 in0.0 mm 0.00 in0.0 mm 0.00 in0.0 mm
07:55 AM 59.5°F15.3°C 55.4°F13.0°C 86% 3.9 mph SW6.3 kmh SW 8.1 mph13.0 kmh 29.41 in995.9 mb 0.00 in0.0 mm 0.00 in0.0 mm 0.00 in0.0 mm
08:00 AM 60.3°F15.7°C 55.4°F13.0°C 86% 4.2 mph SW6.8 kmh SW 8.1 mph13.0 kmh 29.41 in995.9 mb 0.00 in0.0 mm 0.00 in0.0 mm 0.00 in0.0 mm
08:05 AM 60.8°F16.0°C 57.2°F14.0°C 85% 5.8 mph SW9.3 kmh SW 10.3 mph16.6 kmh 29.41 in995.9 mb 0.00 in0.0 mm 0.00 in0.0 mm 0.00 in0.0 mm
08:10 AM 61.3°F16.3°C 57.2°F14.0°C 85% 6.5 mph SW10.5 kmh SW 11.0 mph17.7 kmh 29.41 in995.9 mb 0.00 in0.0 mm 0.00 in0.0 mm 0.00 in0.0 mm
08:15 AM 61.7°F16.5°C 57.2°F14.0°C 85% 5.3 mph WSW8.5 kmh WSW 11.0 mph17.7 kmh 29.41 in995.9 mb 0.00 in0.0 mm 0.00 in0.0 mm 0.00 in0.0 mm
08:20 AM 61.5°F16.4°C 57.2°F14.0°C 85% 5.1 mph SW8.2 kmh SW 7.2 mph11.6 kmh 29.41 in995.9 mb 0.00 in0.0 mm 0.00 in0.0 mm 0.00 in0.0 mm
08:25 AM 61.3°F16.3°C 57.2°F14.0°C 84% 6.0 mph SW9.7 kmh SW 11.9 mph19.2 kmh 29.41 in995.9 mb 0.00 in0.0 mm 0.00 in0.0 mm 0.00 in0.0 mm
08:30 AM 61.3°F16.3°C 57.2°F14.0°C 84% 4.6 mph SW7.4 kmh SW 11.9 mph19.2 kmh 29.41 in995.9 mb 0.00 in0.0 mm 0.00 in0.0 mm 0.00 in0.0 mm
08:35 AM 62.2°F16.8°C 57.2°F14.0°C 84% 3.3 mph SW5.3 kmh SW 7.4 mph11.9 kmh 29.41 in995.9 mb 0.00 in0.0 mm 0.00 in0.0 mm 0.00 in0.0 mm
08:40 AM 62.1°F16.7°C 57.2°F14.0°C 84% 4.7 mph SW7.6 kmh SW 8.7 mph14.0 kmh 29.41 in995.9 mb 0.00 in0.0 mm 0.00 in0.0 mm 0.00 in0.0 mm
08:45 AM 62.1°F16.7°C 57.2°F14.0°C 83% 5.0 mph SSW8.0 kmh SSW 10.1 mph16.3 kmh 29.41 in995.9 mb 0.00 in0.0 mm 0.00 in0.0 mm 0.00 in0.0 mm
08:50 AM 61.9°F16.6°C 57.2°F14.0°C 83% 4.2 mph SW6.8 kmh SW 10.1 mph16.3 kmh 29.41 in995.9 mb 0.00 in0.0 mm 0.00 in0.0 mm 0.00 in0.0 mm
08:55 AM 61.7°F16.5°C 57.2°F14.0°C 83% 4.3 mph WSW6.9 kmh WSW 7.2 mph11.6 kmh 29.45 in997.3 mb 0.00 in0.0 mm 0.00 in0.0 mm 0.00 in0.0 mm
09:00 AM 61.5°F16.4°C 55.4°F13.0°C 83% 5.0 mph SW8.0 kmh SW 9.8 mph15.8 kmh 29.45 in997.3 mb 0.00 in0.0 mm 0.00 in0.0 mm 0.00 in0.0 mm
09:05 AM 61.3°F16.3°C 55.4°F13.0°C 83% 5.7 mph WSW9.2 kmh WSW 10.7 mph17.2 kmh 29.45 in997.3 mb 0.00 in0.0 mm 0.00 in0.0 mm 0.00 in0.0 mm
09:10 AM 62.8°F17.1°C 57.2°F14.0°C 82% 4.9 mph SW7.9 kmh SW 10.7 mph17.2 kmh 29.45 in997.3 mb 0.00 in0.0 mm 0.00 in0.0 mm 0.00 in0.0 mm
09:15 AM 63.9°F17.7°C 57.2°F14.0°C 81% 3.3 mph SW5.3 kmh SW 6.0 mph9.7 kmh 29.45 in997.3 mb 0.00 in0.0 mm 0.00 in0.0 mm 0.00 in0.0 mm
09:20 AM 64.4°F18.0°C 59.0°F15.0°C 80% 4.5 mph SW7.2 kmh SW 9.2 mph14.8 kmh 29.45 in997.3 mb 0.00 in0.0 mm 0.00 in0.0 mm 0.00 in0.0 mm
09:25 AM 64.9°F18.3°C 59.0°F15.0°C 79% 5.1 mph SW8.2 kmh SW 9.2 mph14.8 kmh 29.45 in997.3 mb 0.00 in0.0 mm 0.00 in0.0 mm 0.00 in0.0 mm
09:30 AM 65.1°F18.4°C 59.0°F15.0°C 79% 5.6 mph WSW9.0 kmh WSW 10.7 mph17.2 kmh 29.45 in997.3 mb 0.00 in0.0 mm 0.00 in0.0 mm 0.00 in0.0 mm
09:35 AM 64.9°F18.3°C 57.2°F14.0°C 78% 6.5 mph WSW10.5 kmh WSW 10.7 mph17.2 kmh 29.45 in997.3 mb 0.00 in0.0 mm 0.00 in0.0 mm 0.00 in0.0 mm
09:40 AM 65.8°F18.8°C 59.0°F15.0°C 79% 5.5 mph WSW8.9 kmh WSW 11.0 mph17.7 kmh 29.45 in997.3 mb 0.00 in0.0 mm 0.00 in0.0 mm 0.00 in0.0 mm
09:45 AM 65.5°F18.6°C 59.0°F15.0°C 78% 5.2 mph WSW8.4 kmh WSW 11.0 mph17.7 kmh 29.45 in997.3 mb 0.00 in0.0 mm 0.00 in0.0 mm 0.00 in0.0 mm
09:50 AM 66.4°F19.1°C 59.0°F15.0°C 77% 5.3 mph SW8.5 kmh SW 9.4 mph15.1 kmh 29.45 in997.3 mb 0.00 in0.0 mm 0.00 in0.0 mm 0.00 in0.0 mm
09:55 AM 67.1°F19.5°C 59.0°F15.0°C 76% 5.7 mph WSW9.2 kmh WSW 9.4 mph15.1 kmh 29.45 in997.3 mb 0.00 in0.0 mm 0.00 in0.0 mm 0.00 in0.0 mm
10:00 AM 68.2°F20.1°C 59.0°F15.0°C 74% 5.4 mph WSW8.7 kmh WSW 9.4 mph15.1 kmh 29.45 in997.3 mb 0.00 in0.0 mm 0.00 in0.0 mm 0.00 in0.0 mm
10:05 AM 68.7°F20.4°C 60.8°F16.0°C 74% 5.2 mph SW8.4 kmh SW 9.4 mph15.1 kmh 29.45 in997.3 mb 0.00 in0.0 mm 0.00 in0.0 mm 0.00 in0.0 mm
10:10 AM 70.0°F21.1°C 60.8°F16.0°C 73% 4.5 mph SW7.2 kmh SW 7.4 mph11.9 kmh 29.45 in997.3 mb 0.00 in0.0 mm 0.00 in0.0 mm 0.00 in0.0 mm
10:20 AM 69.6°F20.9°C 60.8°F16.0°C 71% 5.6 mph WSW9.0 kmh WSW 9.8 mph15.8 kmh 29.45 in997.3 mb 0.00 in0.0 mm 0.00 in0.0 mm 0.00 in0.0 mm
10:25 AM 70.3°F21.3°C 60.8°F16.0°C 71% 4.0 mph SW6.4 kmh SW 10.1 mph16.3 kmh 29.45 in997.3 mb 0.00 in0.0 mm 0.00 in0.0 mm 0.00 in0.0 mm
10:30 AM 71.1°F21.7°C 60.8°F16.0°C 70% 7.1 mph WSW11.4 kmh WSW 17.2 mph27.7 kmh 29.45 in997.3 mb 0.00 in0.0 mm 0.00 in0.0 mm 0.00 in0.0 mm
10:35 AM 70.9°F21.6°C 60.8°F16.0°C 69% 8.2 mph SW13.2 kmh SW 17.2 mph27.7 kmh 29.45 in997.3 mb 0.00 in0.0 mm 0.00 in0.0 mm 0.00 in0.0 mm
10:40 AM 70.7°F21.5°C 60.8°F16.0°C 69% 7.8 mph SW12.6 kmh SW 13.6 mph21.9 kmh 29.45 in997.3 mb 0.00 in0.0 mm 0.00 in0.0 mm 0.00 in0.0 mm
10:45 AM 71.1°F21.7°C 60.8°F16.0°C 68% 9.2 mph WSW14.8 kmh WSW 13.6 mph21.9 kmh 29.45 in997.3 mb 0.00 in0.0 mm 0.00 in0.0 mm 0.00 in0.0 mm
10:50 AM 70.2°F21.2°C 59.0°F15.0°C 67% 9.6 mph WSW15.4 kmh WSW 14.5 mph23.3 kmh 29.45 in997.3 mb 0.00 in0.0 mm 0.00 in0.0 mm 0.00 in0.0 mm
10:55 AM 70.9°F21.6°C 59.0°F15.0°C 66% 9.6 mph WSW15.4 kmh WSW 14.5 mph23.3 kmh 29.47 in998.0 mb 0.00 in0.0 mm 0.00 in0.0 mm 0.00 in0.0 mm
11:00 AM 70.3°F21.3°C 59.0°F15.0°C 66% 8.6 mph W13.8 kmh W 13.2 mph21.2 kmh 29.47 in998.0 mb 0.00 in0.0 mm 0.00 in0.0 mm 0.00 in0.0 mm
11:05 AM 70.2°F21.2°C 59.0°F15.0°C 66% 8.4 mph W13.5 kmh W 11.0 mph17.7 kmh 29.47 in998.0 mb 0.00 in0.0 mm 0.00 in0.0 mm 0.00 in0.0 mm
11:10 AM 70.9°F21.6°C 59.0°F15.0°C 66% 6.5 mph W10.5 kmh W 11.0 mph17.7 kmh 29.47 in998.0 mb 0.00 in0.0 mm 0.00 in0.0 mm 0.00 in0.0 mm
11:15 AM 70.2°F21.2°C 59.0°F15.0°C 66% 5.9 mph WSW9.5 kmh WSW 10.7 mph17.2 kmh 29.47 in998.0 mb 0.00 in0.0 mm 0.00 in0.0 mm 0.00 in0.0 mm
11:20 AM 70.0°F21.1°C 57.2°F14.0°C 64% 5.7 mph WSW9.2 kmh WSW 10.7 mph17.2 kmh 29.47 in998.0 mb 0.00 in0.0 mm 0.00 in0.0 mm 0.00 in0.0 mm
11:25 AM 71.1°F21.7°C 59.0°F15.0°C 64% 6.1 mph WSW9.8 kmh WSW 10.1 mph16.3 kmh 29.47 in998.0 mb 0.00 in0.0 mm 0.00 in0.0 mm 0.00 in0.0 mm
11:30 AM 71.8°F22.1°C 57.2°F14.0°C 61% 7.7 mph WSW12.4 kmh WSW 10.3 mph16.6 kmh 29.47 in998.0 mb 0.00 in0.0 mm 0.00 in0.0 mm 0.00 in0.0 mm
11:35 AM 71.2°F21.8°C 57.2°F14.0°C 61% 7.8 mph WSW12.6 kmh WSW 10.3 mph16.6 kmh 29.47 in998.0 mb 0.00 in0.0 mm 0.00 in0.0 mm 0.00 in0.0 mm
11:40 AM 72.9°F22.7°C 57.2°F14.0°C 57% 6.1 mph WSW9.8 kmh WSW 8.1 mph13.0 kmh 29.47 in998.0 mb 0.00 in0.0 mm 0.00 in0.0 mm 0.00 in0.0 mm
11:45 AM 73.4°F23.0°C 57.2°F14.0°C 56% 8.2 mph WSW13.2 kmh WSW 17.2 mph27.7 kmh 29.47 in998.0 mb 0.00 in0.0 mm 0.00 in0.0 mm 0.00 in0.0 mm
11:50 AM 73.8°F23.2°C 57.2°F14.0°C 55% 9.4 mph WSW15.1 kmh WSW 17.2 mph27.7 kmh 29.47 in998.0 mb 0.00 in0.0 mm 0.00 in0.0 mm 0.00 in0.0 mm
11:55 AM 73.2°F22.9°C 55.4°F13.0°C 54% 8.4 mph WSW13.5 kmh WSW 17.2 mph27.7 kmh 29.47 in998.0 mb 0.00 in0.0 mm 0.00 in0.0 mm 0.00 in0.0 mm
12:00 PM 70.5°F21.4°C 53.6°F12.0°C 55% 9.0 mph WSW14.5 kmh WSW 12.8 mph20.6 kmh 29.47 in998.0 mb 0.00 in0.0 mm 0.00 in0.0 mm 0.00 in0.0 mm
12:05 PM 72.0°F22.2°C 55.4°F13.0°C 54% 9.8 mph WSW15.8 kmh WSW 13.0 mph20.9 kmh 29.47 in998.0 mb 0.00 in0.0 mm 0.00 in0.0 mm 0.00 in0.0 mm
12:10 PM 73.4°F23.0°C 55.4°F13.0°C 53% 8.4 mph WSW13.5 kmh WSW 13.0 mph20.9 kmh 29.47 in998.0 mb 0.00 in0.0 mm 0.00 in0.0 mm 0.00 in0.0 mm
12:15 PM 74.1°F23.4°C 55.4°F13.0°C 53% 6.7 mph WSW10.8 kmh WSW 11.4 mph18.3 kmh 29.47 in998.0 mb 0.00 in0.0 mm 0.00 in0.0 mm 0.00 in0.0 mm
12:20 PM 74.7°F23.7°C 57.2°F14.0°C 53% 6.3 mph SW10.1 kmh SW 12.8 mph20.6 kmh 29.47 in998.0 mb 0.00 in0.0 mm 0.00 in0.0 mm 0.00 in0.0 mm
12:25 PM 74.8°F23.8°C 55.4°F13.0°C 52% 7.2 mph SW11.6 kmh SW 12.8 mph20.6 kmh 29.47 in998.0 mb 0.00 in0.0 mm 0.00 in0.0 mm 0.00 in0.0 mm
12:30 PM 73.6°F23.1°C 55.4°F13.0°C 52% 7.7 mph WSW12.4 kmh WSW 14.5 mph23.3 kmh 29.47 in998.0 mb 0.00 in0.0 mm 0.00 in0.0 mm 0.00 in0.0 mm
12:35 PM 70.9°F21.6°C 53.6°F12.0°C 54% 8.6 mph WSW13.8 kmh WSW 17.4 mph28.0 kmh 29.47 in998.0 mb 0.00 in0.0 mm 0.00 in0.0 mm 0.00 in0.0 mm
12:40 PM 70.9°F21.6°C 53.6°F12.0°C 53% 9.2 mph WSW14.8 kmh WSW 17.4 mph28.0 kmh 29.47 in998.0 mb 0.00 in0.0 mm 0.00 in0.0 mm 0.00 in0.0 mm
12:45 PM 72.7°F22.6°C 55.4°F13.0°C 53% 8.3 mph W13.4 kmh W 12.8 mph20.6 kmh 29.47 in998.0 mb 0.00 in0.0 mm 0.00 in0.0 mm 0.00 in0.0 mm
12:50 PM 73.4°F23.0°C 55.4°F13.0°C 51% 8.7 mph W14.0 kmh W 14.1 mph22.7 kmh 29.47 in998.0 mb 0.00 in0.0 mm 0.00 in0.0 mm 0.00 in0.0 mm
12:55 PM 74.3°F23.5°C 55.4°F13.0°C 50% 8.0 mph WSW12.9 kmh WSW 14.1 mph22.7 kmh 29.47 in998.0 mb 0.00 in0.0 mm 0.00 in0.0 mm 0.00 in0.0 mm
01:00 PM 74.3°F23.5°C 55.4°F13.0°C 50% 8.5 mph WSW13.7 kmh WSW 19.0 mph30.6 kmh 29.47 in998.0 mb 0.00 in0.0 mm 0.00 in0.0 mm 0.00 in0.0 mm
01:05 PM 73.8°F23.2°C 53.6°F12.0°C 49% 11.4 mph WSW18.3 kmh WSW 19.0 mph30.6 kmh 29.47 in998.0 mb 0.00 in0.0 mm 0.00 in0.0 mm 0.00 in0.0 mm
01:10 PM 73.8°F23.2°C 53.6°F12.0°C 49% 11.0 mph WSW17.7 kmh WSW 16.8 mph27.0 kmh 29.47 in998.0 mb 0.00 in0.0 mm 0.00 in0.0 mm 0.00 in0.0 mm
01:15 PM 73.6°F23.1°C 53.6°F12.0°C 49% 8.2 mph WSW13.2 kmh WSW 13.0 mph20.9 kmh 29.47 in998.0 mb 0.00 in0.0 mm 0.00 in0.0 mm 0.00 in0.0 mm
01:20 PM 73.9°F23.3°C 55.4°F13.0°C 50% 5.6 mph WSW9.0 kmh WSW 13.0 mph20.9 kmh 29.47 in998.0 mb 0.00 in0.0 mm 0.00 in0.0 mm 0.00 in0.0 mm
01:25 PM 74.7°F23.7°C 55.4°F13.0°C 50% 5.3 mph W8.5 kmh W 8.1 mph13.0 kmh 29.47 in998.0 mb 0.00 in0.0 mm 0.00 in0.0 mm 0.00 in0.0 mm
01:30 PM 74.5°F23.6°C 55.4°F13.0°C 49% 6.9 mph WSW11.1 kmh WSW 13.0 mph20.9 kmh 29.47 in998.0 mb 0.00 in0.0 mm 0.00 in0.0 mm 0.00 in0.0 mm
01:35 PM 74.5°F23.6°C 55.4°F13.0°C 49% 8.9 mph WSW14.3 kmh WSW 15.2 mph24.5 kmh 29.47 in998.0 mb 0.00 in0.0 mm 0.00 in0.0 mm 0.00 in0.0 mm
01:40 PM 74.1°F23.4°C 53.6°F12.0°C 47% 9.5 mph WSW15.3 kmh WSW 18.8 mph30.3 kmh 29.47 in998.0 mb 0.00 in0.0 mm 0.00 in0.0 mm 0.00 in0.0 mm
01:45 PM 74.5°F23.6°C 53.6°F12.0°C 48% 10.3 mph WSW16.6 kmh WSW 18.8 mph30.3 kmh 29.47 in998.0 mb 0.00 in0.0 mm 0.00 in0.0 mm 0.00 in0.0 mm
01:50 PM 73.6°F23.1°C 51.8°F11.0°C 47% 8.3 mph WSW13.4 kmh WSW 15.2 mph24.5 kmh 29.47 in998.0 mb 0.00 in0.0 mm 0.00 in0.0 mm 0.00 in0.0 mm
01:55 PM 74.8°F23.8°C 53.6°F12.0°C 47% 6.9 mph WSW11.1 kmh WSW 11.0 mph17.7 kmh 29.47 in998.0 mb 0.00 in0.0 mm 0.00 in0.0 mm 0.00 in0.0 mm
02:00 PM 75.0°F23.9°C 53.6°F12.0°C 47% 8.1 mph WSW13.0 kmh WSW 14.3 mph23.0 kmh 29.47 in998.0 mb 0.00 in0.0 mm 0.00 in0.0 mm 0.00 in0.0 mm
02:05 PM 75.4°F24.1°C 53.6°F12.0°C 47% 8.7 mph WSW14.0 kmh WSW 14.3 mph23.0 kmh 29.47 in998.0 mb 0.00 in0.0 mm 0.00 in0.0 mm 0.00 in0.0 mm
02:10 PM 74.8°F23.8°C 53.6°F12.0°C 47% 7.2 mph WSW11.6 kmh WSW 13.0 mph20.9 kmh 29.50 in999.0 mb 0.00 in0.0 mm 0.00 in0.0 mm 0.00 in0.0 mm
02:15 PM 74.8°F23.8°C 53.6°F12.0°C 47% 6.2 mph WSW10.0 kmh WSW 14.3 mph23.0 kmh 29.50 in999.0 mb 0.00 in0.0 mm 0.00 in0.0 mm 0.00 in0.0 mm
02:20 PM 74.5°F23.6°C 53.6°F12.0°C 47% 8.0 mph WSW12.9 kmh WSW 14.3 mph23.0 kmh 29.50 in999.0 mb 0.00 in0.0 mm 0.00 in0.0 mm 0.00 in0.0 mm
02:25 PM 74.1°F23.4°C 51.8°F11.0°C 46% 9.2 mph W14.8 kmh W 14.3 mph23.0 kmh 29.47 in998.0 mb 0.00 in0.0 mm 0.00 in0.0 mm 0.00 in0.0 mm
02:30 PM 73.6°F23.1°C 51.8°F11.0°C 45% 10.2 mph WSW16.4 kmh WSW 16.8 mph27.0 kmh 29.47 in998.0 mb 0.00 in0.0 mm 0.00 in0.0 mm 0.00 in0.0 mm
02:35 PM 73.6°F23.1°C 51.8°F11.0°C 45% 10.2 mph WSW16.4 kmh WSW 16.8 mph27.0 kmh 29.47 in998.0 mb 0.00 in0.0 mm 0.00 in0.0 mm 0.00 in0.0 mm
02:40 PM 73.8°F23.2°C 51.8°F11.0°C 45% 8.7 mph WSW14.0 kmh WSW 15.2 mph24.5 kmh 29.50 in999.0 mb 0.00 in0.0 mm 0.00 in0.0 mm 0.00 in0.0 mm
02:45 PM 73.8°F23.2°C 51.8°F11.0°C 46% 7.5 mph WSW12.1 kmh WSW 12.8 mph20.6 kmh 29.50 in999.0 mb 0.00 in0.0 mm 0.00 in0.0 mm 0.00 in0.0 mm
02:50 PM 73.2°F22.9°C 51.8°F11.0°C 46% 7.8 mph WSW12.6 kmh WSW 12.8 mph20.6 kmh 29.50 in999.0 mb 0.00 in0.0 mm 0.00 in0.0 mm 0.00 in0.0 mm
02:55 PM 73.4°F23.0°C 51.8°F11.0°C 45% 8.9 mph W14.3 kmh W 12.5 mph20.1 kmh 29.50 in999.0 mb 0.00 in0.0 mm 0.00 in0.0 mm 0.00 in0.0 mm
03:00 PM 72.9°F22.7°C 51.8°F11.0°C 46% 9.2 mph W14.8 kmh W 12.5 mph20.1 kmh 29.50 in999.0 mb 0.00 in0.0 mm 0.00 in0.0 mm 0.00 in0.0 mm
03:05 PM 72.1°F22.3°C 51.8°F11.0°C 47% 7.8 mph WSW12.6 kmh WSW 11.0 mph17.7 kmh 29.50 in999.0 mb 0.00 in0.0 mm 0.00 in0.0 mm 0.00 in0.0 mm
03:10 PM 71.6°F22.0°C 51.8°F11.0°C 48% 5.4 mph WSW8.7 kmh WSW 7.8 mph12.6 kmh 29.50 in999.0 mb 0.00 in0.0 mm 0.00 in0.0 mm 0.00 in0.0 mm
03:15 PM 72.0°F22.2°C 51.8°F11.0°C 48% 5.9 mph WSW9.5 kmh WSW 12.3 mph19.8 kmh 29.50 in999.0 mb 0.00 in0.0 mm 0.00 in0.0 mm 0.00 in0.0 mm
03:20 PM 72.5°F22.5°C 51.8°F11.0°C 48% 8.0 mph WSW12.9 kmh WSW 12.3 mph19.8 kmh 29.50 in999.0 mb 0.00 in0.0 mm 0.00 in0.0 mm 0.00 in0.0 mm
03:25 PM 73.0°F22.8°C 51.8°F11.0°C 47% 8.8 mph WSW14.2 kmh WSW 13.2 mph21.2 kmh 29.50 in999.0 mb 0.00 in0.0 mm 0.00 in0.0 mm 0.00 in0.0 mm
03:30 PM 72.7°F22.6°C 51.8°F11.0°C 48% 8.3 mph WSW13.4 kmh WSW 13.2 mph21.2 kmh 29.50 in999.0 mb 0.00 in0.0 mm 0.00 in0.0 mm 0.00 in0.0 mm
03:35 PM 71.2°F21.8°C 50.0°F10.0°C 48% 7.4 mph W11.9 kmh W 13.0 mph20.9 kmh 29.50 in999.0 mb 0.00 in0.0 mm 0.00 in0.0 mm 0.00 in0.0 mm
03:40 PM 70.5°F21.4°C 50.0°F10.0°C 49% 5.6 mph WSW9.0 kmh WSW 13.0 mph20.9 kmh 29.50 in999.0 mb 0.00 in0.0 mm 0.00 in0.0 mm 0.00 in0.0 mm
03:45 PM 72.0°F22.2°C 51.8°F11.0°C 49% 5.7 mph WSW9.2 kmh WSW 10.1 mph16.3 kmh 29.50 in999.0 mb 0.00 in0.0 mm 0.00 in0.0 mm 0.00 in0.0 mm
03:50 PM 72.7°F22.6°C 53.6°F12.0°C 49% 6.7 mph WSW10.8 kmh WSW 12.1 mph19.5 kmh 29.50 in999.0 mb 0.00 in0.0 mm 0.00 in0.0 mm 0.00 in0.0 mm
03:55 PM 72.5°F22.5°C 53.6°F12.0°C 49% 5.5 mph WSW8.9 kmh WSW 12.1 mph19.5 kmh 29.50 in999.0 mb 0.00 in0.0 mm 0.00 in0.0 mm 0.00 in0.0 mm
04:00 PM 72.1°F22.3°C 51.8°F11.0°C 49% 5.5 mph WSW8.9 kmh WSW 8.7 mph14.0 kmh 29.50 in999.0 mb 0.00 in0.0 mm 0.00 in0.0 mm 0.00 in0.0 mm
04:05 PM 72.0°F22.2°C 51.8°F11.0°C 49% 6.5 mph WSW10.5 kmh WSW 8.7 mph14.0 kmh 29.50 in999.0 mb 0.00 in0.0 mm 0.00 in0.0 mm 0.00 in0.0 mm
04:10 PM 71.8°F22.1°C 51.8°F11.0°C 49% 7.4 mph WSW11.9 kmh WSW 12.3 mph19.8 kmh 29.50 in999.0 mb 0.00 in0.0 mm 0.00 in0.0 mm 0.00 in0.0 mm
04:15 PM 71.6°F22.0°C 51.8°F11.0°C 49% 7.2 mph SW11.6 kmh SW 12.3 mph19.8 kmh 29.50 in999.0 mb 0.00 in0.0 mm 0.00 in0.0 mm 0.00 in0.0 mm
04:20 PM 70.9°F21.6°C 51.8°F11.0°C 49% 5.6 mph SW9.0 kmh SW 8.5 mph13.7 kmh 29.50 in999.0 mb 0.00 in0.0 mm 0.00 in0.0 mm 0.00 in0.0 mm
04:25 PM 70.2°F21.2°C 50.0°F10.0°C 49% 5.9 mph WSW9.5 kmh WSW 8.7 mph14.0 kmh 29.50 in999.0 mb 0.00 in0.0 mm 0.00 in0.0 mm 0.00 in0.0 mm
04:30 PM 70.3°F21.3°C 50.0°F10.0°C 49% 7.8 mph W12.6 kmh W 12.5 mph20.1 kmh 29.50 in999.0 mb 0.00 in0.0 mm 0.00 in0.0 mm 0.00 in0.0 mm
04:35 PM 70.3°F21.3°C 50.0°F10.0°C 49% 7.4 mph WSW11.9 kmh WSW 12.5 mph20.1 kmh 29.50 in999.0 mb 0.00 in0.0 mm 0.00 in0.0 mm 0.00 in0.0 mm
04:40 PM 69.8°F21.0°C 50.0°F10.0°C 49% 5.7 mph WSW9.2 kmh WSW 10.1 mph16.3 kmh 29.50 in999.0 mb 0.00 in0.0 mm 0.00 in0.0 mm 0.00 in0.0 mm
04:45 PM 69.1°F20.6°C 50.0°F10.0°C 50% 4.6 mph S7.4 kmh S 8.1 mph13.0 kmh 29.50 in999.0 mb 0.00 in0.0 mm 0.00 in0.0 mm 0.00 in0.0 mm
04:50 PM 68.9°F20.5°C 50.0°F10.0°C 50% 4.8 mph SSW7.7 kmh SSW 8.1 mph13.0 kmh 29.50 in999.0 mb 0.00 in0.0 mm 0.00 in0.0 mm 0.00 in0.0 mm
04:55 PM 69.3°F20.7°C 50.0°F10.0°C 50% 5.3 mph SW8.5 kmh SW 11.9 mph19.2 kmh 29.50 in999.0 mb 0.00 in0.0 mm 0.00 in0.0 mm 0.00 in0.0 mm
05:00 PM 69.3°F20.7°C 50.0°F10.0°C 50% 5.9 mph SW9.5 kmh SW 11.9 mph19.2 kmh 29.50 in999.0 mb 0.00 in0.0 mm 0.00 in0.0 mm 0.00 in0.0 mm
05:05 PM 69.1°F20.6°C 50.0°F10.0°C 50% 5.2 mph SW8.4 kmh SW 7.6 mph12.2 kmh 29.50 in999.0 mb 0.00 in0.0 mm 0.00 in0.0 mm 0.00 in0.0 mm
05:10 PM 68.5°F20.3°C 50.0°F10.0°C 50% 6.1 mph WSW9.8 kmh WSW 14.3 mph23.0 kmh 29.50 in999.0 mb 0.00 in0.0 mm 0.00 in0.0 mm 0.00 in0.0 mm
05:15 PM 68.0°F20.0°C 50.0°F10.0°C 51% 5.8 mph WSW9.3 kmh WSW 14.3 mph23.0 kmh 29.50 in999.0 mb 0.00 in0.0 mm 0.00 in0.0 mm 0.00 in0.0 mm
05:20 PM 67.8°F19.9°C 50.0°F10.0°C 51% 5.1 mph SW8.2 kmh SW 8.1 mph13.0 kmh 29.50 in999.0 mb 0.00 in0.0 mm 0.00 in0.0 mm 0.00 in0.0 mm
05:25 PM 67.6°F19.8°C 48.2°F9.0°C 51% 5.3 mph WSW8.5 kmh WSW 8.1 mph13.0 kmh 29.50 in999.0 mb 0.00 in0.0 mm 0.00 in0.0 mm 0.00 in0.0 mm
05:30 PM 68.0°F20.0°C 50.0°F10.0°C 51% 4.9 mph SW7.9 kmh SW 8.1 mph13.0 kmh 29.50 in999.0 mb 0.00 in0.0 mm 0.00 in0.0 mm 0.00 in0.0 mm
05:35 PM 68.0°F20.0°C 50.0°F10.0°C 51% 4.6 mph SW7.4 kmh SW 6.0 mph9.7 kmh 29.50 in999.0 mb 0.00 in0.0 mm 0.00 in0.0 mm 0.00 in0.0 mm
05:40 PM 68.0°F20.0°C 50.0°F10.0°C 51% 4.8 mph WSW7.7 kmh WSW 8.7 mph14.0 kmh 29.50 in999.0 mb 0.00 in0.0 mm 0.00 in0.0 mm 0.00 in0.0 mm
05:45 PM 67.5°F19.7°C 50.0°F10.0°C 52% 5.1 mph WSW8.2 kmh WSW 8.7 mph14.0 kmh 29.50 in999.0 mb 0.00 in0.0 mm 0.00 in0.0 mm 0.00 in0.0 mm
05:50 PM 67.3°F19.6°C 50.0°F10.0°C 52% 4.4 mph WSW7.1 kmh WSW 8.5 mph13.7 kmh 29.50 in999.0 mb 0.00 in0.0 mm 0.00 in0.0 mm 0.00 in0.0 mm
05:55 PM 66.9°F19.4°C 48.2°F9.0°C 52% 3.7 mph WSW6.0 kmh WSW 8.1 mph13.0 kmh 29.50 in999.0 mb 0.00 in0.0 mm 0.00 in0.0 mm 0.00 in0.0 mm
06:00 PM 66.7°F19.3°C 48.2°F9.0°C 52% 3.0 mph WSW4.8 kmh WSW 4.0 mph6.4 kmh 29.50 in999.0 mb 0.00 in0.0 mm 0.00 in0.0 mm 0.00 in0.0 mm
06:05 PM 66.6°F19.2°C 50.0°F10.0°C 53% 2.7 mph SW4.3 kmh SW 4.0 mph6.4 kmh 29.50 in999.0 mb 0.00 in0.0 mm 0.00 in0.0 mm 0.00 in0.0 mm
06:10 PM 66.6°F19.2°C 50.0°F10.0°C 53% 2.7 mph SW4.3 kmh SW 4.0 mph6.4 kmh 29.50 in999.0 mb 0.00 in0.0 mm 0.00 in0.0 mm 0.00 in0.0 mm
06:15 PM 66.4°F19.1°C 48.2°F9.0°C 53% 3.8 mph WSW6.1 kmh WSW 7.4 mph11.9 kmh 29.50 in999.0 mb 0.00 in0.0 mm 0.00 in0.0 mm 0.00 in0.0 mm
06:20 PM 66.4°F19.1°C 48.2°F9.0°C 53% 4.5 mph WSW7.2 kmh WSW 7.4 mph11.9 kmh 29.50 in999.0 mb 0.00 in0.0 mm 0.00 in0.0 mm 0.00 in0.0 mm
06:25 PM 66.0°F18.9°C 50.0°F10.0°C 54% 3.9 mph SW6.3 kmh SW 6.3 mph10.1 kmh 29.50 in999.0 mb 0.00 in0.0 mm 0.00 in0.0 mm 0.00 in0.0 mm
06:30 PM 65.7°F18.7°C 48.2°F9.0°C 54% 3.1 mph SW5.0 kmh SW 6.0 mph9.7 kmh 29.50 in999.0 mb 0.00 in0.0 mm 0.00 in0.0 mm 0.00 in0.0 mm
06:35 PM 65.5°F18.6°C 48.2°F9.0°C 54% 2.6 mph SW4.2 kmh SW 6.0 mph9.7 kmh 29.50 in999.0 mb 0.00 in0.0 mm 0.00 in0.0 mm 0.00 in0.0 mm
06:40 PM 65.3°F18.5°C 48.2°F9.0°C 55% 3.0 mph SSW4.8 kmh SSW 4.7 mph7.6 kmh 29.50 in999.0 mb 0.00 in0.0 mm 0.00 in0.0 mm 0.00 in0.0 mm
06:45 PM 64.9°F18.3°C 48.2°F9.0°C 55% 3.1 mph SW5.0 kmh SW 4.7 mph7.6 kmh 29.50 in999.0 mb 0.00 in0.0 mm 0.00 in0.0 mm 0.00 in0.0 mm
06:50 PM 64.8°F18.2°C 48.2°F9.0°C 55% 2.6 mph SW4.2 kmh SW 4.7 mph7.6 kmh 29.50 in999.0 mb 0.00 in0.0 mm 0.00 in0.0 mm 0.00 in0.0 mm
06:55 PM 64.2°F17.9°C 48.2°F9.0°C 56% 2.1 mph SSW3.4 kmh SSW 4.7 mph7.6 kmh 29.50 in999.0 mb 0.00 in0.0 mm 0.00 in0.0 mm 0.00 in0.0 mm
07:00 PM 64.0°F17.8°C 48.2°F9.0°C 56% 1.3 mph S2.1 kmh S 2.9 mph4.7 kmh 29.50 in999.0 mb 0.00 in0.0 mm 0.00 in0.0 mm 0.00 in0.0 mm
07:05 PM 63.7°F17.6°C 48.2°F9.0°C 56% 1.9 mph SSW3.1 kmh SSW 5.6 mph9.0 kmh 29.50 in999.0 mb 0.00 in0.0 mm 0.00 in0.0 mm 0.00 in0.0 mm
07:10 PM 63.1°F17.3°C 48.2°F9.0°C 57% 2.3 mph SSW3.7 kmh SSW 5.6 mph9.0 kmh 29.50 in999.0 mb 0.00 in0.0 mm 0.00 in0.0 mm 0.00 in0.0 mm
07:15 PM 63.0°F17.2°C 48.2°F9.0°C 57% 2.5 mph SW4.0 kmh SW 3.6 mph5.8 kmh 29.50 in999.0 mb 0.00 in0.0 mm 0.00 in0.0 mm 0.00 in0.0 mm
07:20 PM 62.8°F17.1°C 48.2°F9.0°C 57% 2.4 mph SW3.9 kmh SW 3.6 mph5.8 kmh 29.50 in999.0 mb 0.00 in0.0 mm 0.00 in0.0 mm 0.00 in0.0 mm
07:25 PM 62.4°F16.9°C 48.2°F9.0°C 58% 1.8 mph SW2.9 kmh SW 4.0 mph6.4 kmh 29.50 in999.0 mb 0.00 in0.0 mm 0.00 in0.0 mm 0.00 in0.0 mm
07:30 PM 62.1°F16.7°C 48.2°F9.0°C 58% 2.1 mph SSW3.4 kmh SSW 4.0 mph6.4 kmh 29.50 in999.0 mb 0.00 in0.0 mm 0.00 in0.0 mm 0.00 in0.0 mm
07:35 PM 61.9°F16.6°C 48.2°F9.0°C 58% 2.5 mph SW4.0 kmh SW 3.4 mph5.5 kmh 29.50 in999.0 mb 0.00 in0.0 mm 0.00 in0.0 mm 0.00 in0.0 mm
07:40 PM 61.7°F16.5°C 48.2°F9.0°C 58% 2.7 mph SSW4.3 kmh SSW 3.8 mph6.1 kmh 29.50 in999.0 mb 0.00 in0.0 mm 0.00 in0.0 mm 0.00 in0.0 mm
07:45 PM 61.3°F16.3°C 46.4°F8.0°C 58% 2.5 mph S4.0 kmh S 3.8 mph6.1 kmh 29.50 in999.0 mb 0.00 in0.0 mm 0.00 in0.0 mm 0.00 in0.0 mm
07:50 PM 61.2°F16.2°C 48.2°F9.0°C 59% 2.2 mph S3.5 kmh S 3.1 mph5.0 kmh 29.50 in999.0 mb 0.00 in0.0 mm 0.00 in0.0 mm 0.00 in0.0 mm
07:55 PM 61.0°F16.1°C 46.4°F8.0°C 58% 2.5 mph S4.0 kmh S 3.4 mph5.5 kmh 29.50 in999.0 mb 0.00 in0.0 mm 0.00 in0.0 mm 0.00 in0.0 mm
08:00 PM 60.8°F16.0°C 46.4°F8.0°C 58% 2.4 mph SSW3.9 kmh SSW 3.4 mph5.5 kmh 29.50 in999.0 mb 0.00 in0.0 mm 0.00 in0.0 mm 0.00 in0.0 mm
08:05 PM 60.8°F16.0°C 46.4°F8.0°C 58% 2.5 mph SW4.0 kmh SW 5.4 mph8.7 kmh 29.50 in999.0 mb 0.00 in0.0 mm 0.00 in0.0 mm 0.00 in0.0 mm
08:10 PM 60.6°F15.9°C 46.4°F8.0°C 58% 2.5 mph S4.0 kmh S 5.4 mph8.7 kmh 29.50 in999.0 mb 0.00 in0.0 mm 0.00 in0.0 mm 0.00 in0.0 mm
08:15 PM 60.4°F15.8°C 46.4°F8.0°C 59% 2.4 mph S3.9 kmh S 4.0 mph6.4 kmh 29.50 in999.0 mb 0.00 in0.0 mm 0.00 in0.0 mm 0.00 in0.0 mm
08:20 PM 60.1°F15.6°C 46.4°F8.0°C 59% 2.4 mph SSW3.9 kmh SSW 4.0 mph6.4 kmh 29.50 in999.0 mb 0.00 in0.0 mm 0.00 in0.0 mm 0.00 in0.0 mm
08:25 PM 59.9°F15.5°C 46.4°F8.0°C 60% 1.9 mph SW3.1 kmh SW 3.1 mph5.0 kmh 29.50 in999.0 mb 0.00 in0.0 mm 0.00 in0.0 mm 0.00 in0.0 mm
08:30 PM 60.1°F15.6°C 46.4°F8.0°C 59% 1.6 mph SW2.6 kmh SW 2.7 mph4.3 kmh 29.50 in999.0 mb 0.00 in0.0 mm 0.00 in0.0 mm 0.00 in0.0 mm
08:35 PM 59.9°F15.5°C 46.4°F8.0°C 60% 1.6 mph SW2.6 kmh SW 3.1 mph5.0 kmh 29.50 in999.0 mb 0.00 in0.0 mm 0.00 in0.0 mm 0.00 in0.0 mm
08:40 PM 59.5°F15.3°C 46.4°F8.0°C 60% 1.6 mph SW2.6 kmh SW 3.1 mph5.0 kmh 29.50 in999.0 mb 0.00 in0.0 mm 0.00 in0.0 mm 0.00 in0.0 mm
08:45 PM 59.4°F15.2°C 46.4°F8.0°C 60% 1.2 mph SW1.9 kmh SW 3.1 mph5.0 kmh 29.50 in999.0 mb 0.00 in0.0 mm 0.00 in0.0 mm 0.00 in0.0 mm
08:50 PM 59.0°F15.0°C 46.4°F8.0°C 61% 0.9 mph SW1.4 kmh SW 3.1 mph5.0 kmh 29.50 in999.0 mb 0.00 in0.0 mm 0.00 in0.0 mm 0.00 in0.0 mm
08:55 PM 58.8°F14.9°C 46.4°F8.0°C 61% 1.2 mph SW1.9 kmh SW 3.1 mph5.0 kmh 29.50 in999.0 mb 0.00 in0.0 mm 0.00 in0.0 mm 0.00 in0.0 mm
09:00 PM 58.5°F14.7°C 44.6°F7.0°C 61% 1.3 mph SSW2.1 kmh SSW 2.5 mph4.0 kmh 29.50 in999.0 mb 0.00 in0.0 mm 0.00 in0.0 mm 0.00 in0.0 mm
09:05 PM 58.5°F14.7°C 44.6°F7.0°C 61% 1.6 mph SSW2.6 kmh SSW 2.5 mph4.0 kmh 29.50 in999.0 mb 0.00 in0.0 mm 0.00 in0.0 mm 0.00 in0.0 mm
09:10 PM 58.1°F14.5°C 44.6°F7.0°C 61% 1.8 mph S2.9 kmh S 3.6 mph5.8 kmh 29.50 in999.0 mb 0.00 in0.0 mm 0.00 in0.0 mm 0.00 in0.0 mm
09:15 PM 58.1°F14.5°C 44.6°F7.0°C 61% 2.2 mph SE3.5 kmh SE 3.6 mph5.8 kmh 29.50 in999.0 mb 0.00 in0.0 mm 0.00 in0.0 mm 0.00 in0.0 mm
09:20 PM 58.1°F14.5°C 46.4°F8.0°C 62% 2.1 mph SE3.4 kmh SE 3.6 mph5.8 kmh 29.50 in999.0 mb 0.00 in0.0 mm 0.00 in0.0 mm 0.00 in0.0 mm
09:25 PM 57.4°F14.1°C 44.6°F7.0°C 62% 1.3 mph SE2.1 kmh SE 2.7 mph4.3 kmh 29.50 in999.0 mb 0.00 in0.0 mm 0.00 in0.0 mm 0.00 in0.0 mm
09:30 PM 57.2°F14.0°C 44.6°F7.0°C 63% 0.8 mph SE1.3 kmh SE 2.7 mph4.3 kmh 29.50 in999.0 mb 0.00 in0.0 mm 0.00 in0.0 mm 0.00 in0.0 mm
09:35 PM 57.0°F13.9°C 44.6°F7.0°C 63% 0.7 mph SE1.1 kmh SE 2.0 mph3.2 kmh 29.50 in999.0 mb 0.00 in0.0 mm 0.00 in0.0 mm 0.00 in0.0 mm
09:40 PM 57.0°F13.9°C 44.6°F7.0°C 63% 1.4 mph SE2.3 kmh SE 2.5 mph4.0 kmh 29.50 in999.0 mb 0.00 in0.0 mm 0.00 in0.0 mm 0.00 in0.0 mm
09:45 PM 56.8°F13.8°C 44.6°F7.0°C 63% 1.7 mph S2.7 kmh S 2.7 mph4.3 kmh 29.50 in999.0 mb 0.00 in0.0 mm 0.00 in0.0 mm 0.00 in0.0 mm
09:50 PM 56.8°F13.8°C 44.6°F7.0°C 63% 2.1 mph S3.4 kmh S 3.8 mph6.1 kmh 29.50 in999.0 mb 0.00 in0.0 mm 0.00 in0.0 mm 0.00 in0.0 mm
09:55 PM 56.5°F13.6°C 44.6°F7.0°C 63% 2.4 mph S3.9 kmh S 3.8 mph6.1 kmh 29.50 in999.0 mb 0.00 in0.0 mm 0.00 in0.0 mm 0.00 in0.0 mm
10:00 PM 56.5°F13.6°C 44.6°F7.0°C 64% 2.3 mph SSE3.7 kmh SSE 3.6 mph5.8 kmh 29.50 in999.0 mb 0.00 in0.0 mm 0.00 in0.0 mm 0.00 in0.0 mm
10:05 PM 56.5°F13.6°C 44.6°F7.0°C 63% 2.5 mph SSE4.0 kmh SSE 3.6 mph5.8 kmh 29.50 in999.0 mb 0.00 in0.0 mm 0.00 in0.0 mm 0.00 in0.0 mm
10:10 PM 56.5°F13.6°C 44.6°F7.0°C 63% 2.8 mph SSE4.5 kmh SSE 3.6 mph5.8 kmh 29.50 in999.0 mb 0.00 in0.0 mm 0.00 in0.0 mm 0.00 in0.0 mm
10:15 PM 56.5°F13.6°C 44.6°F7.0°C 64% 2.6 mph SSE4.2 kmh SSE 3.4 mph5.5 kmh 29.50 in999.0 mb 0.00 in0.0 mm 0.00 in0.0 mm 0.00 in0.0 mm
10:20 PM 56.5°F13.6°C 44.6°F7.0°C 64% 2.4 mph SSE3.9 kmh SSE 3.6 mph5.8 kmh 29.50 in999.0 mb 0.00 in0.0 mm 0.00 in0.0 mm 0.00 in0.0 mm
10:25 PM 56.3°F13.5°C 44.6°F7.0°C 64% 2.7 mph SSE4.3 kmh SSE 4.0 mph6.4 kmh 29.50 in999.0 mb 0.00 in0.0 mm 0.00 in0.0 mm 0.00 in0.0 mm
10:30 PM 55.9°F13.3°C 44.6°F7.0°C 64% 2.8 mph SSE4.5 kmh SSE 4.0 mph6.4 kmh 29.50 in999.0 mb 0.00 in0.0 mm 0.00 in0.0 mm 0.00 in0.0 mm
10:35 PM 55.9°F13.3°C 44.6°F7.0°C 64% 2.7 mph SE4.3 kmh SE 3.6 mph5.8 kmh 29.50 in999.0 mb 0.00 in0.0 mm 0.00 in0.0 mm 0.00 in0.0 mm
10:40 PM 55.8°F13.2°C 44.6°F7.0°C 64% 2.8 mph SE4.5 kmh SE 3.6 mph5.8 kmh 29.50 in999.0 mb 0.00 in0.0 mm 0.00 in0.0 mm 0.00 in0.0 mm
10:45 PM 55.6°F13.1°C 44.6°F7.0°C 64% 2.7 mph SE4.3 kmh SE 3.6 mph5.8 kmh 29.50 in999.0 mb 0.00 in0.0 mm 0.00 in0.0 mm 0.00 in0.0 mm
10:50 PM 55.4°F13.0°C 44.6°F7.0°C 64% 3.1 mph SE5.0 kmh SE 4.7 mph7.6 kmh 29.50 in999.0 mb 0.00 in0.0 mm 0.00 in0.0 mm 0.00 in0.0 mm
10:55 PM 55.4°F13.0°C 44.6°F7.0°C 64% 3.1 mph SSE5.0 kmh SSE 4.7 mph7.6 kmh 29.50 in999.0 mb 0.00 in0.0 mm 0.00 in0.0 mm 0.00 in0.0 mm
11:00 PM 55.2°F12.9°C 44.6°F7.0°C 64% 3.0 mph SSE4.8 kmh SSE 5.4 mph8.7 kmh 29.50 in999.0 mb 0.00 in0.0 mm 0.00 in0.0 mm 0.00 in0.0 mm
11:05 PM 55.2°F12.9°C 44.6°F7.0°C 64% 3.3 mph SSE5.3 kmh SSE 5.4 mph8.7 kmh 29.50 in999.0 mb 0.00 in0.0 mm 0.00 in0.0 mm 0.00 in0.0 mm
11:10 PM 55.0°F12.8°C 44.6°F7.0°C 64% 3.2 mph SE5.1 kmh SE 4.7 mph7.6 kmh 29.50 in999.0 mb 0.00 in0.0 mm 0.00 in0.0 mm 0.00 in0.0 mm
11:15 PM 54.9°F12.7°C 44.6°F7.0°C 65% 2.8 mph SSE4.5 kmh SSE 4.0 mph6.4 kmh 29.50 in999.0 mb 0.00 in0.0 mm 0.00 in0.0 mm 0.00 in0.0 mm
11:20 PM 54.7°F12.6°C 44.6°F7.0°C 65% 2.3 mph S3.7 kmh S 4.0 mph6.4 kmh 29.50 in999.0 mb 0.00 in0.0 mm 0.00 in0.0 mm 0.00 in0.0 mm
11:25 PM 54.5°F12.5°C 44.6°F7.0°C 65% 1.5 mph S2.4 kmh S 2.7 mph4.3 kmh 29.50 in999.0 mb 0.00 in0.0 mm 0.00 in0.0 mm 0.00 in0.0 mm
11:30 PM 54.5°F12.5°C 44.6°F7.0°C 65% 1.7 mph SSE2.7 kmh SSE 4.0 mph6.4 kmh 29.50 in999.0 mb 0.00 in0.0 mm 0.00 in0.0 mm 0.00 in0.0 mm
11:35 PM 54.3°F12.4°C 42.8°F6.0°C 65% 2.0 mph S3.2 kmh S 4.0 mph6.4 kmh 29.50 in999.0 mb 0.00 in0.0 mm 0.00 in0.0 mm 0.00 in0.0 mm
11:40 PM 54.0°F12.2°C 42.8°F6.0°C 66% 1.2 mph S1.9 kmh S 4.0 mph6.4 kmh 29.50 in999.0 mb 0.00 in0.0 mm 0.00 in0.0 mm 0.00 in0.0 mm
11:45 PM 53.8°F12.1°C 42.8°F6.0°C 66% 0.4 mph SE0.6 kmh SE 2.7 mph4.3 kmh 29.50 in999.0 mb 0.00 in0.0 mm 0.00 in0.0 mm 0.00 in0.0 mm
11:50 PM 53.6°F12.0°C 42.8°F6.0°C 67% 0.2 mph ENE0.3 kmh ENE 1.1 mph1.8 kmh 29.50 in999.0 mb 0.00 in0.0 mm 0.00 in0.0 mm 0.00 in0.0 mm
11:55 PM 53.2°F11.8°C 42.8°F6.0°C 67% 0.9 mph NE1.4 kmh NE 2.2 mph3.5 kmh 29.50 in999.0 mb 0.00 in0.0 mm 0.00 in0.0 mm 0.00 in0.0 mm